sensor_id;sensor_type;location;lat;lon;timestamp;P1;durP1;ratioP1;P2;durP2;ratioP2
10277;SDS011;5184;51.376;7.148;2023-03-13T00:02:26;17.40;;;4.00;;
10277;SDS011;5184;51.376;7.148;2023-03-13T00:04:53;17.03;;;3.77;;
10277;SDS011;5184;51.376;7.148;2023-03-13T00:07:20;16.53;;;4.30;;
10277;SDS011;5184;51.376;7.148;2023-03-13T00:09:46;14.50;;;4.07;;
10277;SDS011;5184;51.376;7.148;2023-03-13T00:12:14;12.70;;;3.73;;
10277;SDS011;5184;51.376;7.148;2023-03-13T00:14:42;14.63;;;4.07;;
10277;SDS011;5184;51.376;7.148;2023-03-13T00:17:09;14.43;;;4.13;;
10277;SDS011;5184;51.376;7.148;2023-03-13T00:19:36;12.57;;;3.90;;
10277;SDS011;5184;51.376;7.148;2023-03-13T00:22:03;11.37;;;3.50;;
10277;SDS011;5184;51.376;7.148;2023-03-13T00:24:29;14.40;;;3.90;;
10277;SDS011;5184;51.376;7.148;2023-03-13T00:26:56;15.80;;;3.93;;
10277;SDS011;5184;51.376;7.148;2023-03-13T00:29:22;13.97;;;3.63;;
10277;SDS011;5184;51.376;7.148;2023-03-13T00:31:49;12.30;;;3.63;;
10277;SDS011;5184;51.376;7.148;2023-03-13T00:34:16;13.97;;;3.67;;
10277;SDS011;5184;51.376;7.148;2023-03-13T00:36:43;14.97;;;3.40;;
10277;SDS011;5184;51.376;7.148;2023-03-13T00:39:10;15.87;;;3.43;;
10277;SDS011;5184;51.376;7.148;2023-03-13T00:41:36;18.00;;;4.13;;
10277;SDS011;5184;51.376;7.148;2023-03-13T00:44:03;16.10;;;4.07;;
10277;SDS011;5184;51.376;7.148;2023-03-13T00:46:30;15.70;;;3.90;;
10277;SDS011;5184;51.376;7.148;2023-03-13T00:48:57;11.30;;;3.60;;
10277;SDS011;5184;51.376;7.148;2023-03-13T00:51:24;14.77;;;3.87;;
10277;SDS011;5184;51.376;7.148;2023-03-13T00:53:51;11.93;;;3.30;;
10277;SDS011;5184;51.376;7.148;2023-03-13T00:56:18;13.73;;;3.67;;
10277;SDS011;5184;51.376;7.148;2023-03-13T00:58:45;14.43;;;4.00;;
10277;SDS011;5184;51.376;7.148;2023-03-13T01:01:16;17.57;;;4.57;;
10277;SDS011;5184;51.376;7.148;2023-03-13T01:03:45;16.87;;;4.37;;
10277;SDS011;5184;51.376;7.148;2023-03-13T01:06:12;15.33;;;4.07;;
10277;SDS011;5184;51.376;7.148;2023-03-13T01:08:37;9.97;;;3.70;;
10277;SDS011;5184;51.376;7.148;2023-03-13T01:11:04;11.27;;;3.47;;
10277;SDS011;5184;51.376;7.148;2023-03-13T01:13:31;14.33;;;4.13;;
10277;SDS011;5184;51.376;7.148;2023-03-13T01:16:02;14.00;;;3.60;;
10277;SDS011;5184;51.376;7.148;2023-03-13T01:18:33;14.77;;;3.77;;
10277;SDS011;5184;51.376;7.148;2023-03-13T01:20:59;12.57;;;3.90;;
10277;SDS011;5184;51.376;7.148;2023-03-13T01:23:26;10.33;;;3.50;;
10277;SDS011;5184;51.376;7.148;2023-03-13T01:25:54;16.47;;;3.67;;
10277;SDS011;5184;51.376;7.148;2023-03-13T01:28:21;16.33;;;3.67;;
10277;SDS011;5184;51.376;7.148;2023-03-13T01:30:48;12.17;;;3.53;;
10277;SDS011;5184;51.376;7.148;2023-03-13T01:33:16;15.93;;;4.60;;
10277;SDS011;5184;51.376;7.148;2023-03-13T01:35:44;13.97;;;4.27;;
10277;SDS011;5184;51.376;7.148;2023-03-13T01:38:10;15.13;;;4.03;;
10277;SDS011;5184;51.376;7.148;2023-03-13T01:40:38;17.53;;;3.97;;
10277;SDS011;5184;51.376;7.148;2023-03-13T01:43:11;14.23;;;3.70;;
10277;SDS011;5184;51.376;7.148;2023-03-13T01:48:10;15.13;;;4.37;;
10277;SDS011;5184;51.376;7.148;2023-03-13T01:50:37;18.17;;;4.50;;
10277;SDS011;5184;51.376;7.148;2023-03-13T01:53:03;13.23;;;3.57;;
10277;SDS011;5184;51.376;7.148;2023-03-13T01:55:30;13.13;;;3.97;;
10277;SDS011;5184;51.376;7.148;2023-03-13T01:57:57;17.37;;;4.97;;
10277;SDS011;5184;51.376;7.148;2023-03-13T02:00:25;17.30;;;4.47;;
10277;SDS011;5184;51.376;7.148;2023-03-13T02:02:54;20.30;;;4.50;;
10277;SDS011;5184;51.376;7.148;2023-03-13T02:05:22;19.50;;;4.63;;
10277;SDS011;5184;51.376;7.148;2023-03-13T02:07:52;18.70;;;4.57;;
10277;SDS011;5184;51.376;7.148;2023-03-13T02:10:16;14.97;;;4.20;;
10277;SDS011;5184;51.376;7.148;2023-03-13T02:12:43;16.03;;;4.07;;
10277;SDS011;5184;51.376;7.148;2023-03-13T02:15:11;17.97;;;4.37;;
10277;SDS011;5184;51.376;7.148;2023-03-13T02:17:38;15.53;;;4.53;;
10277;SDS011;5184;51.376;7.148;2023-03-13T02:20:05;18.53;;;4.53;;
10277;SDS011;5184;51.376;7.148;2023-03-13T02:22:39;18.47;;;4.60;;
10277;SDS011;5184;51.376;7.148;2023-03-13T02:25:42;18.33;;;4.40;;
10277;SDS011;5184;51.376;7.148;2023-03-13T02:28:08;12.40;;;3.53;;
10277;SDS011;5184;51.376;7.148;2023-03-13T02:30:34;10.20;;;3.70;;
10277;SDS011;5184;51.376;7.148;2023-03-13T02:33:00;15.43;;;4.57;;
10277;SDS011;5184;51.376;7.148;2023-03-13T02:35:27;16.20;;;4.43;;
10277;SDS011;5184;51.376;7.148;2023-03-13T02:37:56;18.33;;;4.40;;
10277;SDS011;5184;51.376;7.148;2023-03-13T02:40:24;18.67;;;4.23;;
10277;SDS011;5184;51.376;7.148;2023-03-13T02:42:50;16.20;;;4.23;;
10277;SDS011;5184;51.376;7.148;2023-03-13T02:45:18;18.40;;;4.70;;
10277;SDS011;5184;51.376;7.148;2023-03-13T02:47:45;11.47;;;3.80;;
10277;SDS011;5184;51.376;7.148;2023-03-13T02:50:12;19.37;;;4.43;;
10277;SDS011;5184;51.376;7.148;2023-03-13T02:52:42;20.80;;;4.77;;
10277;SDS011;5184;51.376;7.148;2023-03-13T02:55:09;18.17;;;4.53;;
10277;SDS011;5184;51.376;7.148;2023-03-13T02:57:34;11.90;;;4.20;;
10277;SDS011;5184;51.376;7.148;2023-03-13T03:00:02;11.20;;;4.17;;
10277;SDS011;5184;51.376;7.148;2023-03-13T03:02:28;17.53;;;4.70;;
10277;SDS011;5184;51.376;7.148;2023-03-13T03:04:54;18.07;;;4.57;;
10277;SDS011;5184;51.376;7.148;2023-03-13T03:07:21;14.27;;;4.37;;
10277;SDS011;5184;51.376;7.148;2023-03-13T03:09:48;11.93;;;4.23;;
10277;SDS011;5184;51.376;7.148;2023-03-13T03:12:14;20.73;;;4.57;;
10277;SDS011;5184;51.376;7.148;2023-03-13T03:14:41;12.07;;;3.63;;
10277;SDS011;5184;51.376;7.148;2023-03-13T03:17:08;17.50;;;4.90;;
10277;SDS011;5184;51.376;7.148;2023-03-13T03:19:35;17.73;;;4.57;;
10277;SDS011;5184;51.376;7.148;2023-03-13T03:22:01;16.10;;;3.97;;
10277;SDS011;5184;51.376;7.148;2023-03-13T03:24:28;16.33;;;4.03;;
10277;SDS011;5184;51.376;7.148;2023-03-13T03:26:55;17.20;;;4.03;;
10277;SDS011;5184;51.376;7.148;2023-03-13T03:29:21;15.93;;;3.90;;
10277;SDS011;5184;51.376;7.148;2023-03-13T03:31:48;11.53;;;3.60;;
10277;SDS011;5184;51.376;7.148;2023-03-13T03:34:15;14.13;;;3.63;;
10277;SDS011;5184;51.376;7.148;2023-03-13T03:36:42;10.63;;;3.30;;
10277;SDS011;5184;51.376;7.148;2023-03-13T03:39:08;11.37;;;3.10;;
10277;SDS011;5184;51.376;7.148;2023-03-13T03:41:35;13.53;;;3.20;;
10277;SDS011;5184;51.376;7.148;2023-03-13T03:44:03;7.50;;;2.83;;
10277;SDS011;5184;51.376;7.148;2023-03-13T03:46:29;5.17;;;2.53;;
10277;SDS011;5184;51.376;7.148;2023-03-13T03:48:56;11.17;;;3.13;;
10277;SDS011;5184;51.376;7.148;2023-03-13T03:51:24;8.37;;;2.70;;
10277;SDS011;5184;51.376;7.148;2023-03-13T03:53:51;7.47;;;2.67;;
10277;SDS011;5184;51.376;7.148;2023-03-13T03:56:18;11.50;;;2.90;;
10277;SDS011;5184;51.376;7.148;2023-03-13T03:58:46;5.80;;;2.43;;
10277;SDS011;5184;51.376;7.148;2023-03-13T04:01:13;6.13;;;1.97;;
10277;SDS011;5184;51.376;7.148;2023-03-13T04:03:40;6.17;;;2.10;;
10277;SDS011;5184;51.376;7.148;2023-03-13T04:06:06;6.97;;;2.60;;
10277;SDS011;5184;51.376;7.148;2023-03-13T04:08:33;9.97;;;2.00;;
10277;SDS011;5184;51.376;7.148;2023-03-13T04:11:00;7.23;;;2.40;;
10277;SDS011;5184;51.376;7.148;2023-03-13T04:13:27;5.90;;;2.00;;
10277;SDS011;5184;51.376;7.148;2023-03-13T04:15:54;5.13;;;2.13;;
10277;SDS011;5184;51.376;7.148;2023-03-13T04:18:22;6.40;;;2.17;;
10277;SDS011;5184;51.376;7.148;2023-03-13T04:20:49;7.60;;;2.40;;
10277;SDS011;5184;51.376;7.148;2023-03-13T04:23:17;7.50;;;2.30;;
10277;SDS011;5184;51.376;7.148;2023-03-13T04:25:44;5.20;;;2.27;;
10277;SDS011;5184;51.376;7.148;2023-03-13T04:28:11;5.13;;;2.00;;
10277;SDS011;5184;51.376;7.148;2023-03-13T04:30:37;3.40;;;1.90;;
10277;SDS011;5184;51.376;7.148;2023-03-13T04:33:04;6.53;;;2.10;;
10277;SDS011;5184;51.376;7.148;2023-03-13T04:35:30;4.63;;;2.27;;
10277;SDS011;5184;51.376;7.148;2023-03-13T04:37:57;5.23;;;2.33;;
10277;SDS011;5184;51.376;7.148;2023-03-13T04:40:24;4.60;;;2.03;;
10277;SDS011;5184;51.376;7.148;2023-03-13T04:42:50;4.17;;;2.30;;
10277;SDS011;5184;51.376;7.148;2023-03-13T04:45:17;2.43;;;2.00;;
10277;SDS011;5184;51.376;7.148;2023-03-13T04:47:44;3.87;;;2.20;;
10277;SDS011;5184;51.376;7.148;2023-03-13T04:50:11;4.73;;;2.40;;
10277;SDS011;5184;51.376;7.148;2023-03-13T04:52:38;2.43;;;1.73;;
10277;SDS011;5184;51.376;7.148;2023-03-13T04:55:05;6.13;;;2.20;;
10277;SDS011;5184;51.376;7.148;2023-03-13T04:57:32;2.77;;;1.70;;
10277;SDS011;5184;51.376;7.148;2023-03-13T05:00:00;4.93;;;2.07;;
10277;SDS011;5184;51.376;7.148;2023-03-13T05:02:27;4.70;;;2.00;;
10277;SDS011;5184;51.376;7.148;2023-03-13T05:04:53;4.63;;;2.13;;
10277;SDS011;5184;51.376;7.148;2023-03-13T05:07:20;3.63;;;1.80;;
10277;SDS011;5184;51.376;7.148;2023-03-13T05:09:47;4.10;;;1.90;;
10277;SDS011;5184;51.376;7.148;2023-03-13T05:12:14;4.37;;;1.63;;
10277;SDS011;5184;51.376;7.148;2023-03-13T05:14:41;4.47;;;1.93;;
10277;SDS011;5184;51.376;7.148;2023-03-13T05:17:09;2.10;;;1.80;;
10277;SDS011;5184;51.376;7.148;2023-03-13T05:19:36;3.90;;;2.10;;
10277;SDS011;5184;51.376;7.148;2023-03-13T05:22:04;3.80;;;2.03;;
10277;SDS011;5184;51.376;7.148;2023-03-13T05:24:30;4.33;;;2.10;;
10277;SDS011;5184;51.376;7.148;2023-03-13T05:26:57;2.97;;;2.10;;
10277;SDS011;5184;51.376;7.148;2023-03-13T05:29:24;6.03;;;1.80;;
10277;SDS011;5184;51.376;7.148;2023-03-13T05:31:51;2.93;;;2.07;;
10277;SDS011;5184;51.376;7.148;2023-03-13T05:34:18;3.33;;;1.83;;
10277;SDS011;5184;51.376;7.148;2023-03-13T05:36:46;4.63;;;2.20;;
10277;SDS011;5184;51.376;7.148;2023-03-13T05:39:13;3.23;;;2.33;;
10277;SDS011;5184;51.376;7.148;2023-03-13T05:41:40;2.97;;;2.37;;
10277;SDS011;5184;51.376;7.148;2023-03-13T05:44:07;3.10;;;2.30;;
10277;SDS011;5184;51.376;7.148;2023-03-13T05:46:34;5.07;;;2.57;;
10277;SDS011;5184;51.376;7.148;2023-03-13T05:49:00;3.17;;;2.43;;
10277;SDS011;5184;51.376;7.148;2023-03-13T05:51:27;4.63;;;2.73;;
10277;SDS011;5184;51.376;7.148;2023-03-13T05:53:54;4.00;;;2.80;;
10277;SDS011;5184;51.376;7.148;2023-03-13T05:56:20;3.90;;;2.80;;
10277;SDS011;5184;51.376;7.148;2023-03-13T05:58:48;3.93;;;2.80;;
10277;SDS011;5184;51.376;7.148;2023-03-13T06:01:15;3.80;;;2.67;;
10277;SDS011;5184;51.376;7.148;2023-03-13T06:03:42;4.43;;;3.10;;
10277;SDS011;5184;51.376;7.148;2023-03-13T06:06:09;4.70;;;2.83;;
10277;SDS011;5184;51.376;7.148;2023-03-13T06:08:36;4.93;;;2.97;;
10277;SDS011;5184;51.376;7.148;2023-03-13T06:11:02;3.97;;;2.87;;
10277;SDS011;5184;51.376;7.148;2023-03-13T06:13:29;4.47;;;2.73;;
10277;SDS011;5184;51.376;7.148;2023-03-13T06:15:57;5.17;;;2.50;;
10277;SDS011;5184;51.376;7.148;2023-03-13T06:18:24;4.57;;;2.73;;
10277;SDS011;5184;51.376;7.148;2023-03-13T06:20:54;4.73;;;3.03;;
10277;SDS011;5184;51.376;7.148;2023-03-13T06:23:17;3.97;;;2.67;;
10277;SDS011;5184;51.376;7.148;2023-03-13T06:25:46;4.13;;;2.73;;
10277;SDS011;5184;51.376;7.148;2023-03-13T06:28:11;4.17;;;2.70;;
10277;SDS011;5184;51.376;7.148;2023-03-13T06:30:38;3.50;;;2.40;;
10277;SDS011;5184;51.376;7.148;2023-03-13T06:33:04;4.37;;;2.23;;
10277;SDS011;5184;51.376;7.148;2023-03-13T06:35:31;4.27;;;2.33;;
10277;SDS011;5184;51.376;7.148;2023-03-13T06:37:58;4.03;;;2.30;;
10277;SDS011;5184;51.376;7.148;2023-03-13T06:40:25;2.43;;;1.90;;
10277;SDS011;5184;51.376;7.148;2023-03-13T06:42:52;3.10;;;2.60;;
10277;SDS011;5184;51.376;7.148;2023-03-13T06:45:20;3.20;;;2.20;;
10277;SDS011;5184;51.376;7.148;2023-03-13T06:47:47;2.33;;;2.10;;
10277;SDS011;5184;51.376;7.148;2023-03-13T06:50:15;3.63;;;2.20;;
10277;SDS011;5184;51.376;7.148;2023-03-13T06:52:42;3.70;;;2.23;;
10277;SDS011;5184;51.376;7.148;2023-03-13T06:55:08;2.67;;;2.03;;
10277;SDS011;5184;51.376;7.148;2023-03-13T06:57:35;3.07;;;2.27;;
10277;SDS011;5184;51.376;7.148;2023-03-13T07:00:02;2.20;;;1.97;;
10277;SDS011;5184;51.376;7.148;2023-03-13T07:02:29;3.13;;;2.20;;
10277;SDS011;5184;51.376;7.148;2023-03-13T07:04:56;3.13;;;2.20;;
10277;SDS011;5184;51.376;7.148;2023-03-13T07:07:23;2.70;;;1.77;;
10277;SDS011;5184;51.376;7.148;2023-03-13T07:09:49;3.33;;;2.13;;
10277;SDS011;5184;51.376;7.148;2023-03-13T07:12:17;2.30;;;2.10;;
10277;SDS011;5184;51.376;7.148;2023-03-13T07:14:43;3.03;;;1.93;;
10277;SDS011;5184;51.376;7.148;2023-03-13T07:17:10;2.30;;;2.07;;
10277;SDS011;5184;51.376;7.148;2023-03-13T07:19:37;2.30;;;1.93;;
10277;SDS011;5184;51.376;7.148;2023-03-13T07:22:03;4.57;;;2.43;;
10277;SDS011;5184;51.376;7.148;2023-03-13T07:24:30;3.20;;;2.20;;
10277;SDS011;5184;51.376;7.148;2023-03-13T07:26:57;3.90;;;2.30;;
10277;SDS011;5184;51.376;7.148;2023-03-13T07:29:23;2.87;;;2.07;;
10277;SDS011;5184;51.376;7.148;2023-03-13T07:31:51;2.70;;;2.10;;
10277;SDS011;5184;51.376;7.148;2023-03-13T07:34:18;2.53;;;1.90;;
10277;SDS011;5184;51.376;7.148;2023-03-13T07:36:45;3.50;;;2.17;;
10277;SDS011;5184;51.376;7.148;2023-03-13T07:39:13;5.00;;;2.30;;
10277;SDS011;5184;51.376;7.148;2023-03-13T07:41:40;2.70;;;2.10;;
10277;SDS011;5184;51.376;7.148;2023-03-13T07:44:07;4.27;;;2.80;;
10277;SDS011;5184;51.376;7.148;2023-03-13T07:46:35;4.53;;;2.20;;
10277;SDS011;5184;51.376;7.148;2023-03-13T07:49:02;3.40;;;1.90;;
10277;SDS011;5184;51.376;7.148;2023-03-13T07:51:28;3.17;;;2.40;;
10277;SDS011;5184;51.376;7.148;2023-03-13T07:53:55;3.33;;;2.20;;
10277;SDS011;5184;51.376;7.148;2023-03-13T07:56:22;6.30;;;2.47;;
10277;SDS011;5184;51.376;7.148;2023-03-13T07:58:48;5.83;;;2.10;;
10277;SDS011;5184;51.376;7.148;2023-03-13T08:01:18;4.00;;;2.50;;
10277;SDS011;5184;51.376;7.148;2023-03-13T08:03:44;3.77;;;2.87;;
10277;SDS011;5184;51.376;7.148;2023-03-13T08:06:12;4.97;;;2.63;;
10277;SDS011;5184;51.376;7.148;2023-03-13T08:08:38;5.20;;;2.60;;
10277;SDS011;5184;51.376;7.148;2023-03-13T08:11:05;3.93;;;2.53;;
10277;SDS011;5184;51.376;7.148;2023-03-13T08:13:32;5.87;;;2.20;;
10277;SDS011;5184;51.376;7.148;2023-03-13T08:16:01;3.90;;;2.30;;
10277;SDS011;5184;51.376;7.148;2023-03-13T08:18:30;3.53;;;2.53;;
10277;SDS011;5184;51.376;7.148;2023-03-13T08:21:01;3.40;;;2.63;;
10277;SDS011;5184;51.376;7.148;2023-03-13T08:23:27;3.90;;;2.47;;
10277;SDS011;5184;51.376;7.148;2023-03-13T08:25:54;3.67;;;2.23;;
10277;SDS011;5184;51.376;7.148;2023-03-13T08:28:20;5.87;;;2.43;;
10277;SDS011;5184;51.376;7.148;2023-03-13T08:30:48;6.70;;;2.70;;
10277;SDS011;5184;51.376;7.148;2023-03-13T08:33:15;4.97;;;2.80;;
10277;SDS011;5184;51.376;7.148;2023-03-13T08:35:42;5.47;;;2.77;;
10277;SDS011;5184;51.376;7.148;2023-03-13T08:38:08;5.07;;;3.10;;
10277;SDS011;5184;51.376;7.148;2023-03-13T08:40:36;5.17;;;2.50;;
10277;SDS011;5184;51.376;7.148;2023-03-13T08:43:03;7.17;;;2.73;;
10277;SDS011;5184;51.376;7.148;2023-03-13T08:45:30;6.60;;;2.70;;
10277;SDS011;5184;51.376;7.148;2023-03-13T08:47:57;5.47;;;2.73;;
10277;SDS011;5184;51.376;7.148;2023-03-13T08:50:23;3.20;;;2.90;;
10277;SDS011;5184;51.376;7.148;2023-03-13T08:52:50;6.07;;;2.70;;
10277;SDS011;5184;51.376;7.148;2023-03-13T08:55:17;5.27;;;2.90;;
10277;SDS011;5184;51.376;7.148;2023-03-13T08:57:44;6.00;;;2.60;;
10277;SDS011;5184;51.376;7.148;2023-03-13T09:00:12;6.23;;;3.03;;
10277;SDS011;5184;51.376;7.148;2023-03-13T09:02:39;5.53;;;2.73;;
10277;SDS011;5184;51.376;7.148;2023-03-13T09:05:06;8.30;;;3.13;;
10277;SDS011;5184;51.376;7.148;2023-03-13T09:07:33;7.57;;;2.87;;
10277;SDS011;5184;51.376;7.148;2023-03-13T09:09:59;6.83;;;2.80;;
10277;SDS011;5184;51.376;7.148;2023-03-13T09:12:26;4.43;;;2.63;;
10277;SDS011;5184;51.376;7.148;2023-03-13T09:14:53;6.03;;;3.00;;
10277;SDS011;5184;51.376;7.148;2023-03-13T09:17:20;7.83;;;3.00;;
10277;SDS011;5184;51.376;7.148;2023-03-13T09:19:47;5.20;;;2.80;;
10277;SDS011;5184;51.376;7.148;2023-03-13T09:22:13;7.93;;;2.70;;
10277;SDS011;5184;51.376;7.148;2023-03-13T09:24:41;5.63;;;2.57;;
10277;SDS011;5184;51.376;7.148;2023-03-13T09:27:08;6.43;;;2.80;;
10277;SDS011;5184;51.376;7.148;2023-03-13T09:29:35;3.73;;;2.80;;
10277;SDS011;5184;51.376;7.148;2023-03-13T09:32:02;5.80;;;2.57;;
10277;SDS011;5184;51.376;7.148;2023-03-13T09:34:29;4.87;;;2.23;;
10277;SDS011;5184;51.376;7.148;2023-03-13T09:36:55;5.57;;;2.90;;
10277;SDS011;5184;51.376;7.148;2023-03-13T09:39:23;5.03;;;3.10;;
10277;SDS011;5184;51.376;7.148;2023-03-13T09:41:52;6.40;;;3.10;;
10277;SDS011;5184;51.376;7.148;2023-03-13T09:44:23;3.90;;;3.17;;
10277;SDS011;5184;51.376;7.148;2023-03-13T09:46:54;6.20;;;3.27;;
10277;SDS011;5184;51.376;7.148;2023-03-13T09:49:26;9.10;;;3.37;;
10277;SDS011;5184;51.376;7.148;2023-03-13T09:54:43;3.53;;;2.90;;
10277;SDS011;5184;51.376;7.148;2023-03-13T09:57:12;5.60;;;3.10;;
10277;SDS011;5184;51.376;7.148;2023-03-13T09:59:56;7.60;;;2.90;;
10277;SDS011;5184;51.376;7.148;2023-03-13T10:02:26;5.97;;;3.10;;
10277;SDS011;5184;51.376;7.148;2023-03-13T10:04:55;5.73;;;2.93;;
10277;SDS011;5184;51.376;7.148;2023-03-13T10:07:35;4.67;;;3.10;;
10277;SDS011;5184;51.376;7.148;2023-03-13T10:10:02;6.97;;;2.83;;
10277;SDS011;5184;51.376;7.148;2023-03-13T10:12:30;4.40;;;2.70;;
10277;SDS011;5184;51.376;7.148;2023-03-13T10:14:59;4.43;;;3.03;;
10277;SDS011;5184;51.376;7.148;2023-03-13T10:17:30;6.63;;;3.17;;
10277;SDS011;5184;51.376;7.148;2023-03-13T10:20:00;5.17;;;2.93;;
10277;SDS011;5184;51.376;7.148;2023-03-13T10:22:27;4.67;;;2.80;;
10277;SDS011;5184;51.376;7.148;2023-03-13T10:24:57;3.67;;;2.60;;
10277;SDS011;5184;51.376;7.148;2023-03-13T10:27:24;4.47;;;2.40;;
10277;SDS011;5184;51.376;7.148;2023-03-13T10:29:51;4.30;;;2.47;;
10277;SDS011;5184;51.376;7.148;2023-03-13T10:32:19;4.60;;;2.20;;
10277;SDS011;5184;51.376;7.148;2023-03-13T10:34:55;3.87;;;2.50;;
10277;SDS011;5184;51.376;7.148;2023-03-13T10:37:28;5.00;;;2.33;;
10277;SDS011;5184;51.376;7.148;2023-03-13T10:42:34;6.50;;;2.23;;
10277;SDS011;5184;51.376;7.148;2023-03-13T10:45:01;3.33;;;2.40;;
10277;SDS011;5184;51.376;7.148;2023-03-13T10:47:27;4.93;;;2.40;;
10277;SDS011;5184;51.376;7.148;2023-03-13T10:49:55;3.33;;;2.20;;
10277;SDS011;5184;51.376;7.148;2023-03-13T10:52:42;3.50;;;1.97;;
10277;SDS011;5184;51.376;7.148;2023-03-13T10:55:10;3.17;;;2.30;;
10277;SDS011;5184;51.376;7.148;2023-03-13T10:57:36;3.97;;;2.03;;
10277;SDS011;5184;51.376;7.148;2023-03-13T11:00:06;5.00;;;2.27;;
10277;SDS011;5184;51.376;7.148;2023-03-13T11:02:34;3.20;;;1.73;;
10277;SDS011;5184;51.376;7.148;2023-03-13T11:05:00;4.00;;;2.10;;
10277;SDS011;5184;51.376;7.148;2023-03-13T11:07:29;3.00;;;1.80;;
10277;SDS011;5184;51.376;7.148;2023-03-13T11:09:57;3.50;;;1.73;;
10277;SDS011;5184;51.376;7.148;2023-03-13T11:12:23;3.07;;;1.90;;
10277;SDS011;5184;51.376;7.148;2023-03-13T11:14:55;3.37;;;2.10;;
10277;SDS011;5184;51.376;7.148;2023-03-13T11:17:25;2.23;;;1.50;;
10277;SDS011;5184;51.376;7.148;2023-03-13T11:19:54;3.03;;;1.77;;
10277;SDS011;5184;51.376;7.148;2023-03-13T11:22:34;3.70;;;1.93;;
10277;SDS011;5184;51.376;7.148;2023-03-13T11:25:20;3.13;;;2.00;;
10277;SDS011;5184;51.376;7.148;2023-03-13T11:27:49;3.20;;;2.00;;
10277;SDS011;5184;51.376;7.148;2023-03-13T11:30:23;4.23;;;2.00;;
10277;SDS011;5184;51.376;7.148;2023-03-13T11:32:53;3.67;;;1.80;;
10277;SDS011;5184;51.376;7.148;2023-03-13T11:35:22;3.37;;;1.80;;
10277;SDS011;5184;51.376;7.148;2023-03-13T11:37:48;1.50;;;1.40;;
10277;SDS011;5184;51.376;7.148;2023-03-13T11:40:51;1.73;;;1.50;;
10277;SDS011;5184;51.376;7.148;2023-03-13T11:43:03;2.13;;;1.40;;
10277;SDS011;5184;51.376;7.148;2023-03-13T11:45:48;2.60;;;1.43;;
10277;SDS011;5184;51.376;7.148;2023-03-13T11:48:26;1.40;;;1.30;;
10277;SDS011;5184;51.376;7.148;2023-03-13T11:50:56;1.40;;;1.20;;
10277;SDS011;5184;51.376;7.148;2023-03-13T11:53:38;2.73;;;1.57;;
10277;SDS011;5184;51.376;7.148;2023-03-13T11:56:06;2.53;;;1.50;;
10277;SDS011;5184;51.376;7.148;2023-03-13T11:58:45;1.70;;;1.47;;
10277;SDS011;5184;51.376;7.148;2023-03-13T12:01:19;2.97;;;1.40;;
10277;SDS011;5184;51.376;7.148;2023-03-13T12:03:52;2.53;;;1.50;;
10277;SDS011;5184;51.376;7.148;2023-03-13T12:06:36;2.33;;;1.40;;
10277;SDS011;5184;51.376;7.148;2023-03-13T12:09:04;1.83;;;1.20;;
10277;SDS011;5184;51.376;7.148;2023-03-13T12:11:32;1.63;;;1.33;;
10277;SDS011;5184;51.376;7.148;2023-03-13T12:14:00;3.97;;;1.40;;
10277;SDS011;5184;51.376;7.148;2023-03-13T12:16:27;1.33;;;1.20;;
10277;SDS011;5184;51.376;7.148;2023-03-13T12:18:52;1.60;;;1.30;;
10277;SDS011;5184;51.376;7.148;2023-03-13T12:21:20;2.20;;;1.40;;
10277;SDS011;5184;51.376;7.148;2023-03-13T12:23:49;1.53;;;1.43;;
10277;SDS011;5184;51.376;7.148;2023-03-13T12:26:15;1.93;;;1.30;;
10277;SDS011;5184;51.376;7.148;2023-03-13T12:28:43;2.40;;;1.40;;
10277;SDS011;5184;51.376;7.148;2023-03-13T12:31:44;2.33;;;1.27;;
10277;SDS011;5184;51.376;7.148;2023-03-13T12:34:21;1.10;;;1.00;;
10277;SDS011;5184;51.376;7.148;2023-03-13T12:37:05;1.20;;;1.10;;
10277;SDS011;5184;51.376;7.148;2023-03-13T12:39:34;2.47;;;1.00;;
10277;SDS011;5184;51.376;7.148;2023-03-13T12:42:09;1.80;;;1.20;;
10277;SDS011;5184;51.376;7.148;2023-03-13T12:44:39;1.93;;;1.20;;
10277;SDS011;5184;51.376;7.148;2023-03-13T12:47:07;1.47;;;1.20;;
10277;SDS011;5184;51.376;7.148;2023-03-13T12:49:38;2.20;;;1.30;;
10277;SDS011;5184;51.376;7.148;2023-03-13T12:52:26;1.67;;;1.20;;
10277;SDS011;5184;51.376;7.148;2023-03-13T12:54:55;1.90;;;1.37;;
10277;SDS011;5184;51.376;7.148;2023-03-13T12:57:42;2.33;;;1.30;;
10277;SDS011;5184;51.376;7.148;2023-03-13T13:00:10;1.10;;;1.00;;
10277;SDS011;5184;51.376;7.148;2023-03-13T13:02:32;1.13;;;1.03;;
10277;SDS011;5184;51.376;7.148;2023-03-13T13:05:00;2.60;;;1.50;;
10277;SDS011;5184;51.376;7.148;2023-03-13T13:07:27;2.60;;;1.17;;
10277;SDS011;5184;51.376;7.148;2023-03-13T13:10:04;2.37;;;1.30;;
10277;SDS011;5184;51.376;7.148;2023-03-13T13:12:45;2.87;;;1.30;;
10277;SDS011;5184;51.376;7.148;2023-03-13T13:15:16;2.17;;;1.07;;
10277;SDS011;5184;51.376;7.148;2023-03-13T13:17:46;1.80;;;1.20;;
10277;SDS011;5184;51.376;7.148;2023-03-13T13:22:50;1.13;;;1.00;;
10277;SDS011;5184;51.376;7.148;2023-03-13T13:27:51;1.30;;;1.20;;
10277;SDS011;5184;51.376;7.148;2023-03-13T13:35:38;3.73;;;1.20;;
10277;SDS011;5184;51.376;7.148;2023-03-13T13:38:24;2.27;;;1.20;;
10277;SDS011;5184;51.376;7.148;2023-03-13T13:43:38;1.80;;;1.20;;
10277;SDS011;5184;51.376;7.148;2023-03-13T13:49:05;1.63;;;1.20;;
10277;SDS011;5184;51.376;7.148;2023-03-13T13:54:30;2.00;;;1.33;;
10277;SDS011;5184;51.376;7.148;2023-03-13T13:56:58;1.63;;;1.10;;
10277;SDS011;5184;51.376;7.148;2023-03-13T13:59:26;1.73;;;1.27;;
10277;SDS011;5184;51.376;7.148;2023-03-13T14:04:48;5.97;;;2.87;;
10277;SDS011;5184;51.376;7.148;2023-03-13T14:07:17;1.40;;;1.30;;
10277;SDS011;5184;51.376;7.148;2023-03-13T14:09:49;1.37;;;1.27;;
10277;SDS011;5184;51.376;7.148;2023-03-13T14:17:41;1.73;;;1.13;;
10277;SDS011;5184;51.376;7.148;2023-03-13T14:20:25;1.67;;;1.53;;
10277;SDS011;5184;51.376;7.148;2023-03-13T14:22:50;1.43;;;1.30;;
10277;SDS011;5184;51.376;7.148;2023-03-13T14:25:16;3.57;;;1.30;;
10277;SDS011;5184;51.376;7.148;2023-03-13T14:27:44;2.13;;;1.20;;
10277;SDS011;5184;51.376;7.148;2023-03-13T14:30:12;1.40;;;1.20;;
10277;SDS011;5184;51.376;7.148;2023-03-13T14:32:39;3.93;;;1.30;;
10277;SDS011;5184;51.376;7.148;2023-03-13T14:35:07;1.33;;;1.23;;
10277;SDS011;5184;51.376;7.148;2023-03-13T14:37:40;2.67;;;1.30;;
10277;SDS011;5184;51.376;7.148;2023-03-13T14:40:06;2.00;;;1.27;;
10277;SDS011;5184;51.376;7.148;2023-03-13T14:42:37;1.93;;;1.10;;
10277;SDS011;5184;51.376;7.148;2023-03-13T14:45:11;2.77;;;1.20;;
10277;SDS011;5184;51.376;7.148;2023-03-13T14:47:30;2.23;;;1.27;;
10277;SDS011;5184;51.376;7.148;2023-03-13T14:49:57;2.97;;;1.30;;
10277;SDS011;5184;51.376;7.148;2023-03-13T14:52:24;1.37;;;1.27;;
10277;SDS011;5184;51.376;7.148;2023-03-13T14:54:54;2.33;;;1.77;;
10277;SDS011;5184;51.376;7.148;2023-03-13T14:57:23;2.77;;;2.20;;
10277;SDS011;5184;51.376;7.148;2023-03-13T14:59:48;4.17;;;2.10;;
10277;SDS011;5184;51.376;7.148;2023-03-13T15:02:18;1.80;;;1.60;;
10277;SDS011;5184;51.376;7.148;2023-03-13T15:04:46;2.27;;;1.87;;
10277;SDS011;5184;51.376;7.148;2023-03-13T15:07:19;3.37;;;2.30;;
10277;SDS011;5184;51.376;7.148;2023-03-13T15:09:45;2.40;;;2.07;;
10277;SDS011;5184;51.376;7.148;2023-03-13T15:12:13;2.40;;;2.00;;
10277;SDS011;5184;51.376;7.148;2023-03-13T15:14:40;3.73;;;1.43;;
10277;SDS011;5184;51.376;7.148;2023-03-13T15:17:10;3.30;;;2.30;;
10277;SDS011;5184;51.376;7.148;2023-03-13T15:19:40;3.07;;;1.60;;
10277;SDS011;5184;51.376;7.148;2023-03-13T15:22:10;1.47;;;1.20;;
10277;SDS011;5184;51.376;7.148;2023-03-13T15:24:34;3.57;;;1.33;;
10277;SDS011;5184;51.376;7.148;2023-03-13T15:27:02;4.30;;;1.53;;
10277;SDS011;5184;51.376;7.148;2023-03-13T15:29:28;2.90;;;1.30;;
10277;SDS011;5184;51.376;7.148;2023-03-13T15:31:55;5.33;;;1.53;;
10277;SDS011;5184;51.376;7.148;2023-03-13T15:34:21;4.63;;;1.50;;
10277;SDS011;5184;51.376;7.148;2023-03-13T15:36:48;2.43;;;1.30;;
10277;SDS011;5184;51.376;7.148;2023-03-13T15:39:15;4.23;;;1.77;;
10277;SDS011;5184;51.376;7.148;2023-03-13T15:41:42;3.03;;;1.60;;